sensor_id;sensor_type;location;lat;lon;timestamp;P1;durP1;ratioP1;P2;durP2;ratioP2
14030;SDS011;7090;49.436;8.490;2023-06-24T00:01:16;6.70;;;6.50;;
14030;SDS011;7090;49.436;8.490;2023-06-24T00:03:42;6.47;;;6.28;;
14030;SDS011;7090;49.436;8.490;2023-06-24T00:06:11;6.60;;;6.40;;
14030;SDS011;7090;49.436;8.490;2023-06-24T00:08:43;6.70;;;6.50;;
14030;SDS011;7090;49.436;8.490;2023-06-24T00:11:10;6.38;;;6.18;;
14030;SDS011;7090;49.436;8.490;2023-06-24T00:13:35;6.80;;;6.60;;
14030;SDS011;7090;49.436;8.490;2023-06-24T00:16:02;6.90;;;6.70;;
14030;SDS011;7090;49.436;8.490;2023-06-24T00:18:28;6.70;;;6.50;;
14030;SDS011;7090;49.436;8.490;2023-06-24T00:20:54;7.20;;;6.90;;
14030;SDS011;7090;49.436;8.490;2023-06-24T00:23:21;6.53;;;6.32;;
14030;SDS011;7090;49.436;8.490;2023-06-24T00:25:51;7.20;;;6.90;;
14030;SDS011;7090;49.436;8.490;2023-06-24T00:28:17;6.32;;;6.13;;
14030;SDS011;7090;49.436;8.490;2023-06-24T00:30:43;7.07;;;6.78;;
14030;SDS011;7090;49.436;8.490;2023-06-24T00:33:09;6.63;;;6.43;;
14030;SDS011;7090;49.436;8.490;2023-06-24T00:35:36;6.40;;;6.20;;
14030;SDS011;7090;49.436;8.490;2023-06-24T00:38:02;6.70;;;6.50;;
14030;SDS011;7090;49.436;8.490;2023-06-24T00:40:28;6.80;;;6.60;;
14030;SDS011;7090;49.436;8.490;2023-06-24T00:42:54;6.82;;;6.63;;
14030;SDS011;7090;49.436;8.490;2023-06-24T00:45:20;6.68;;;6.47;;
14030;SDS011;7090;49.436;8.490;2023-06-24T00:47:47;6.70;;;6.50;;
14030;SDS011;7090;49.436;8.490;2023-06-24T00:50:13;6.60;;;6.40;;
14030;SDS011;7090;49.436;8.490;2023-06-24T00:52:40;6.60;;;6.40;;
14030;SDS011;7090;49.436;8.490;2023-06-24T00:55:09;7.70;;;7.38;;
14030;SDS011;7090;49.436;8.490;2023-06-24T00:57:38;6.80;;;6.60;;
14030;SDS011;7090;49.436;8.490;2023-06-24T01:00:07;6.70;;;6.50;;
14030;SDS011;7090;49.436;8.490;2023-06-24T01:02:38;6.30;;;6.10;;
14030;SDS011;7090;49.436;8.490;2023-06-24T01:05:07;6.80;;;6.60;;
14030;SDS011;7090;49.436;8.490;2023-06-24T01:07:33;6.40;;;6.20;;
14030;SDS011;7090;49.436;8.490;2023-06-24T01:10:02;6.47;;;6.28;;
14030;SDS011;7090;49.436;8.490;2023-06-24T01:12:30;6.50;;;6.30;;
14030;SDS011;7090;49.436;8.490;2023-06-24T01:14:56;6.85;;;6.65;;
14030;SDS011;7090;49.436;8.490;2023-06-24T01:17:28;6.68;;;6.47;;
14030;SDS011;7090;49.436;8.490;2023-06-24T01:25:20;6.03;;;5.82;;
14030;SDS011;7090;49.436;8.490;2023-06-24T01:28:15;6.20;;;6.00;;
14030;SDS011;7090;49.436;8.490;2023-06-24T01:34:06;6.38;;;6.18;;
14030;SDS011;7090;49.436;8.490;2023-06-24T01:36:53;6.20;;;6.00;;
14030;SDS011;7090;49.436;8.490;2023-06-24T01:39:37;6.70;;;6.50;;
14030;SDS011;7090;49.436;8.490;2023-06-24T01:42:12;6.80;;;6.60;;
14030;SDS011;7090;49.436;8.490;2023-06-24T01:44:40;6.65;;;6.45;;
14030;SDS011;7090;49.436;8.490;2023-06-24T01:47:08;6.80;;;6.60;;
14030;SDS011;7090;49.436;8.490;2023-06-24T01:49:37;6.60;;;6.40;;
14030;SDS011;7090;49.436;8.490;2023-06-24T01:52:05;6.82;;;6.63;;
14030;SDS011;7090;49.436;8.490;2023-06-24T01:54:34;6.70;;;6.50;;
14030;SDS011;7090;49.436;8.490;2023-06-24T01:57:02;6.85;;;6.65;;
14030;SDS011;7090;49.436;8.490;2023-06-24T01:59:30;6.88;;;6.68;;
14030;SDS011;7090;49.436;8.490;2023-06-24T02:01:57;6.40;;;6.20;;
14030;SDS011;7090;49.436;8.490;2023-06-24T02:04:25;6.30;;;6.10;;
14030;SDS011;7090;49.436;8.490;2023-06-24T02:06:55;6.43;;;6.22;;
14030;SDS011;7090;49.436;8.490;2023-06-24T02:09:24;6.40;;;6.20;;
14030;SDS011;7090;49.436;8.490;2023-06-24T02:11:51;6.53;;;6.32;;
14030;SDS011;7090;49.436;8.490;2023-06-24T02:14:18;6.50;;;6.30;;
14030;SDS011;7090;49.436;8.490;2023-06-24T02:16:45;7.07;;;6.78;;
14030;SDS011;7090;49.436;8.490;2023-06-24T02:19:12;6.60;;;6.40;;
14030;SDS011;7090;49.436;8.490;2023-06-24T02:21:42;6.38;;;6.18;;
14030;SDS011;7090;49.436;8.490;2023-06-24T02:24:09;6.47;;;6.28;;
14030;SDS011;7090;49.436;8.490;2023-06-24T02:26:36;6.70;;;6.50;;
14030;SDS011;7090;49.436;8.490;2023-06-24T02:29:05;6.82;;;6.60;;
14030;SDS011;7090;49.436;8.490;2023-06-24T02:31:35;6.75;;;6.55;;
14030;SDS011;7090;49.436;8.490;2023-06-24T02:34:01;6.55;;;6.35;;
14030;SDS011;7090;49.436;8.490;2023-06-24T02:36:27;6.40;;;6.20;;
14030;SDS011;7090;49.436;8.490;2023-06-24T02:38:52;7.28;;;6.97;;
14030;SDS011;7090;49.436;8.490;2023-06-24T02:41:18;7.35;;;7.05;;
14030;SDS011;7090;49.436;8.490;2023-06-24T02:43:44;6.93;;;6.72;;
14030;SDS011;7090;49.436;8.490;2023-06-24T02:46:09;7.38;;;7.07;;
14030;SDS011;7090;49.436;8.490;2023-06-24T02:48:36;6.90;;;6.70;;
14030;SDS011;7090;49.436;8.490;2023-06-24T02:51:04;7.30;;;7.00;;
14030;SDS011;7090;49.436;8.490;2023-06-24T02:53:32;7.05;;;6.78;;
14030;SDS011;7090;49.436;8.490;2023-06-24T02:55:58;6.60;;;6.40;;
14030;SDS011;7090;49.436;8.490;2023-06-24T02:58:24;7.10;;;6.80;;
14030;SDS011;7090;49.436;8.490;2023-06-24T03:00:57;6.80;;;6.60;;
14030;SDS011;7090;49.436;8.490;2023-06-24T03:03:24;6.60;;;6.40;;
14030;SDS011;7090;49.436;8.490;2023-06-24T03:05:51;7.20;;;6.90;;
14030;SDS011;7090;49.436;8.490;2023-06-24T03:08:18;7.00;;;6.70;;
14030;SDS011;7090;49.436;8.490;2023-06-24T03:10:44;6.75;;;6.55;;
14030;SDS011;7090;49.436;8.490;2023-06-24T03:13:10;7.05;;;6.78;;
14030;SDS011;7090;49.436;8.490;2023-06-24T03:15:35;7.20;;;6.90;;
14030;SDS011;7090;49.436;8.490;2023-06-24T03:18:01;6.60;;;6.40;;
14030;SDS011;7090;49.436;8.490;2023-06-24T03:20:27;6.53;;;6.32;;
14030;SDS011;7090;49.436;8.490;2023-06-24T03:22:52;6.47;;;6.28;;
14030;SDS011;7090;49.436;8.490;2023-06-24T03:25:19;8.63;;;7.20;;
14030;SDS011;7090;49.436;8.490;2023-06-24T03:27:45;7.45;;;7.15;;
14030;SDS011;7090;49.436;8.490;2023-06-24T03:30:10;6.45;;;6.25;;
14030;SDS011;7090;49.436;8.490;2023-06-24T03:32:39;7.50;;;7.20;;
14030;SDS011;7090;49.436;8.490;2023-06-24T03:35:05;8.23;;;7.93;;
14030;SDS011;7090;49.436;8.490;2023-06-24T03:37:32;7.10;;;6.80;;
14030;SDS011;7090;49.436;8.490;2023-06-24T03:39:57;7.10;;;6.80;;
14030;SDS011;7090;49.436;8.490;2023-06-24T03:42:23;6.82;;;6.63;;
14030;SDS011;7090;49.436;8.490;2023-06-24T03:44:48;7.20;;;6.90;;
14030;SDS011;7090;49.436;8.490;2023-06-24T03:47:14;6.97;;;6.70;;
14030;SDS011;7090;49.436;8.490;2023-06-24T03:49:39;7.00;;;6.70;;
14030;SDS011;7090;49.436;8.490;2023-06-24T03:52:05;19.38;;;17.90;;
14030;SDS011;7090;49.436;8.490;2023-06-24T03:54:33;6.60;;;6.40;;
14030;SDS011;7090;49.436;8.490;2023-06-24T03:56:59;6.60;;;6.40;;
14030;SDS011;7090;49.436;8.490;2023-06-24T03:59:24;6.57;;;6.32;;
14030;SDS011;7090;49.436;8.490;2023-06-24T04:01:50;5.82;;;5.63;;
14030;SDS011;7090;49.436;8.490;2023-06-24T04:04:16;6.70;;;6.50;;
14030;SDS011;7090;49.436;8.490;2023-06-24T04:06:42;6.50;;;6.30;;
14030;SDS011;7090;49.436;8.490;2023-06-24T04:09:07;6.30;;;6.10;;
14030;SDS011;7090;49.436;8.490;2023-06-24T04:11:34;6.50;;;6.30;;
14030;SDS011;7090;49.436;8.490;2023-06-24T04:14:00;6.25;;;6.05;;
14030;SDS011;7090;49.436;8.490;2023-06-24T04:16:27;6.25;;;6.05;;
14030;SDS011;7090;49.436;8.490;2023-06-24T04:18:52;6.90;;;6.70;;
14030;SDS011;7090;49.436;8.490;2023-06-24T04:21:18;7.40;;;7.10;;
14030;SDS011;7090;49.436;8.490;2023-06-24T04:23:43;7.32;;;7.03;;
14030;SDS011;7090;49.436;8.490;2023-06-24T04:26:09;6.43;;;6.22;;
14030;SDS011;7090;49.436;8.490;2023-06-24T04:28:35;6.20;;;6.00;;
14030;SDS011;7090;49.436;8.490;2023-06-24T04:31:00;5.88;;;5.68;;
14030;SDS011;7090;49.436;8.490;2023-06-24T04:33:26;6.70;;;6.50;;
14030;SDS011;7090;49.436;8.490;2023-06-24T04:35:51;6.35;;;6.15;;
14030;SDS011;7090;49.436;8.490;2023-06-24T04:38:17;6.57;;;6.38;;
14030;SDS011;7090;49.436;8.490;2023-06-24T04:40:43;6.82;;;6.63;;
14030;SDS011;7090;49.436;8.490;2023-06-24T04:43:09;6.55;;;6.30;;
14030;SDS011;7090;49.436;8.490;2023-06-24T04:45:34;6.57;;;6.35;;
14030;SDS011;7090;49.436;8.490;2023-06-24T04:48:00;7.07;;;6.78;;
14030;SDS011;7090;49.436;8.490;2023-06-24T04:50:25;6.72;;;6.50;;
14030;SDS011;7090;49.436;8.490;2023-06-24T04:52:54;6.25;;;6.05;;
14030;SDS011;7090;49.436;8.490;2023-06-24T04:55:21;6.63;;;6.32;;
14030;SDS011;7090;49.436;8.490;2023-06-24T04:57:47;6.50;;;6.30;;
14030;SDS011;7090;49.436;8.490;2023-06-24T05:00:13;7.10;;;6.72;;
14030;SDS011;7090;49.436;8.490;2023-06-24T05:02:39;7.30;;;6.97;;
14030;SDS011;7090;49.436;8.490;2023-06-24T05:05:04;6.43;;;6.22;;
14030;SDS011;7090;49.436;8.490;2023-06-24T05:07:30;6.47;;;6.28;;
14030;SDS011;7090;49.436;8.490;2023-06-24T05:09:56;7.10;;;6.90;;
14030;SDS011;7090;49.436;8.490;2023-06-24T05:12:21;7.30;;;7.00;;
14030;SDS011;7090;49.436;8.490;2023-06-24T05:14:53;6.72;;;6.53;;
14030;SDS011;7090;49.436;8.490;2023-06-24T05:17:19;7.28;;;6.97;;
14030;SDS011;7090;49.436;8.490;2023-06-24T05:19:45;6.05;;;5.85;;
14030;SDS011;7090;49.436;8.490;2023-06-24T05:22:10;6.82;;;6.53;;
14030;SDS011;7090;49.436;8.490;2023-06-24T05:24:36;6.80;;;6.50;;
14030;SDS011;7090;49.436;8.490;2023-06-24T05:27:05;6.32;;;6.13;;
14030;SDS011;7090;49.436;8.490;2023-06-24T05:29:32;6.80;;;6.60;;
14030;SDS011;7090;49.436;8.490;2023-06-24T05:31:58;7.63;;;7.13;;
14030;SDS011;7090;49.436;8.490;2023-06-24T05:34:24;7.13;;;6.82;;
14030;SDS011;7090;49.436;8.490;2023-06-24T05:36:50;7.78;;;7.18;;
14030;SDS011;7090;49.436;8.490;2023-06-24T05:39:16;7.60;;;7.20;;
14030;SDS011;7090;49.436;8.490;2023-06-24T05:41:42;7.22;;;6.82;;
14030;SDS011;7090;49.436;8.490;2023-06-24T05:44:08;6.70;;;6.50;;
14030;SDS011;7090;49.436;8.490;2023-06-24T05:46:35;6.57;;;6.38;;
14030;SDS011;7090;49.436;8.490;2023-06-24T05:49:01;6.43;;;6.22;;
14030;SDS011;7090;49.436;8.490;2023-06-24T05:51:27;7.32;;;7.03;;
14030;SDS011;7090;49.436;8.490;2023-06-24T05:53:52;6.38;;;6.18;;
14030;SDS011;7090;49.436;8.490;2023-06-24T05:56:19;7.78;;;5.93;;
14030;SDS011;7090;49.436;8.490;2023-06-24T05:58:45;5.95;;;5.75;;
14030;SDS011;7090;49.436;8.490;2023-06-24T06:01:10;7.15;;;6.85;;
14030;SDS011;7090;49.436;8.490;2023-06-24T06:03:36;6.78;;;6.47;;
14030;SDS011;7090;49.436;8.490;2023-06-24T06:06:02;8.40;;;7.80;;
14030;SDS011;7090;49.436;8.490;2023-06-24T06:08:27;6.00;;;5.80;;
14030;SDS011;7090;49.436;8.490;2023-06-24T06:10:53;6.72;;;6.43;;
14030;SDS011;7090;49.436;8.490;2023-06-24T06:13:19;7.25;;;6.85;;
14030;SDS011;7090;49.436;8.490;2023-06-24T06:15:44;7.93;;;7.22;;
14030;SDS011;7090;49.436;8.490;2023-06-24T06:18:10;6.13;;;5.93;;
14030;SDS011;7090;49.436;8.490;2023-06-24T06:20:35;6.68;;;6.38;;
14030;SDS011;7090;49.436;8.490;2023-06-24T06:23:01;5.55;;;5.35;;
14030;SDS011;7090;49.436;8.490;2023-06-24T06:25:27;6.30;;;6.00;;
14030;SDS011;7090;49.436;8.490;2023-06-24T06:27:52;8.65;;;6.95;;
14030;SDS011;7090;49.436;8.490;2023-06-24T06:30:18;6.03;;;5.75;;
14030;SDS011;7090;49.436;8.490;2023-06-24T06:32:43;6.38;;;6.18;;
14030;SDS011;7090;49.436;8.490;2023-06-24T06:35:09;7.88;;;7.38;;
14030;SDS011;7090;49.436;8.490;2023-06-24T06:37:34;6.30;;;6.10;;
14030;SDS011;7090;49.436;8.490;2023-06-24T06:40:00;6.85;;;6.45;;
14030;SDS011;7090;49.436;8.490;2023-06-24T06:42:26;7.10;;;6.80;;
14030;SDS011;7090;49.436;8.490;2023-06-24T06:44:52;7.05;;;6.63;;
14030;SDS011;7090;49.436;8.490;2023-06-24T06:47:17;6.63;;;6.32;;
14030;SDS011;7090;49.436;8.490;2023-06-24T06:49:43;6.88;;;6.57;;
14030;SDS011;7090;49.436;8.490;2023-06-24T06:52:08;7.90;;;7.50;;
14030;SDS011;7090;49.436;8.490;2023-06-24T06:54:34;7.00;;;6.70;;
14030;SDS011;7090;49.436;8.490;2023-06-24T06:57:03;7.20;;;6.90;;
14030;SDS011;7090;49.436;8.490;2023-06-24T06:59:31;8.80;;;8.30;;
14030;SDS011;7090;49.436;8.490;2023-06-24T07:01:57;7.53;;;7.20;;
14030;SDS011;7090;49.436;8.490;2023-06-24T07:04:23;7.35;;;7.05;;
14030;SDS011;7090;49.436;8.490;2023-06-24T07:06:49;8.05;;;7.45;;
14030;SDS011;7090;49.436;8.490;2023-06-24T07:09:15;7.15;;;6.85;;
14030;SDS011;7090;49.436;8.490;2023-06-24T07:11:41;7.57;;;7.18;;
14030;SDS011;7090;49.436;8.490;2023-06-24T07:14:07;8.38;;;7.90;;
14030;SDS011;7090;49.436;8.490;2023-06-24T07:16:33;7.15;;;6.85;;
14030;SDS011;7090;49.436;8.490;2023-06-24T07:18:58;8.48;;;7.97;;
14030;SDS011;7090;49.436;8.490;2023-06-24T07:21:24;6.88;;;6.68;;
14030;SDS011;7090;49.436;8.490;2023-06-24T07:23:49;6.85;;;6.63;;
14030;SDS011;7090;49.436;8.490;2023-06-24T07:26:15;8.05;;;7.57;;
14030;SDS011;7090;49.436;8.490;2023-06-24T07:28:41;7.78;;;7.47;;
14030;SDS011;7090;49.436;8.490;2023-06-24T07:31:06;8.93;;;8.43;;
14030;SDS011;7090;49.436;8.490;2023-06-24T07:33:32;8.55;;;8.15;;
14030;SDS011;7090;49.436;8.490;2023-06-24T07:35:57;8.65;;;8.15;;
14030;SDS011;7090;49.436;8.490;2023-06-24T07:38:23;8.40;;;7.90;;
14030;SDS011;7090;49.436;8.490;2023-06-24T07:40:49;7.53;;;7.22;;
14030;SDS011;7090;49.436;8.490;2023-06-24T07:43:14;7.72;;;7.40;;
14030;SDS011;7090;49.436;8.490;2023-06-24T07:45:40;7.95;;;7.55;;
14030;SDS011;7090;49.436;8.490;2023-06-24T07:48:06;7.85;;;7.55;;
14030;SDS011;7090;49.436;8.490;2023-06-24T07:50:33;7.40;;;7.10;;
14030;SDS011;7090;49.436;8.490;2023-06-24T07:52:59;9.30;;;8.70;;
14030;SDS011;7090;49.436;8.490;2023-06-24T07:55:25;8.05;;;7.68;;
14030;SDS011;7090;49.436;8.490;2023-06-24T07:57:50;7.22;;;6.93;;
14030;SDS011;7090;49.436;8.490;2023-06-24T08:00:16;7.88;;;7.50;;
14030;SDS011;7090;49.436;8.490;2023-06-24T08:02:42;8.55;;;8.15;;
14030;SDS011;7090;49.436;8.490;2023-06-24T08:05:08;7.50;;;7.20;;
14030;SDS011;7090;49.436;8.490;2023-06-24T08:07:39;8.02;;;7.72;;
14030;SDS011;7090;49.436;8.490;2023-06-24T08:10:05;8.27;;;7.88;;
14030;SDS011;7090;49.436;8.490;2023-06-24T08:12:31;7.50;;;7.20;;
14030;SDS011;7090;49.436;8.490;2023-06-24T08:14:57;9.73;;;9.15;;
14030;SDS011;7090;49.436;8.490;2023-06-24T08:17:22;9.13;;;8.55;;
14030;SDS011;7090;49.436;8.490;2023-06-24T08:19:48;8.25;;;7.85;;
14030;SDS011;7090;49.436;8.490;2023-06-24T08:22:14;8.90;;;8.40;;
14030;SDS011;7090;49.436;8.490;2023-06-24T08:24:39;7.80;;;7.50;;
14030;SDS011;7090;49.436;8.490;2023-06-24T08:27:05;8.50;;;8.10;;
14030;SDS011;7090;49.436;8.490;2023-06-24T08:29:31;8.43;;;8.02;;
14030;SDS011;7090;49.436;8.490;2023-06-24T08:31:56;9.60;;;8.75;;
14030;SDS011;7090;49.436;8.490;2023-06-24T08:34:22;7.72;;;7.43;;
14030;SDS011;7090;49.436;8.490;2023-06-24T08:36:47;7.70;;;7.40;;
14030;SDS011;7090;49.436;8.490;2023-06-24T08:39:13;7.90;;;7.60;;
14030;SDS011;7090;49.436;8.490;2023-06-24T08:41:38;7.85;;;7.55;;
14030;SDS011;7090;49.436;8.490;2023-06-24T08:44:04;8.65;;;8.25;;
14030;SDS011;7090;49.436;8.490;2023-06-24T08:46:30;8.38;;;7.97;;
14030;SDS011;7090;49.436;8.490;2023-06-24T08:51:45;8.77;;;8.38;;
14030;SDS011;7090;49.436;8.490;2023-06-24T08:54:14;9.30;;;8.80;;
14030;SDS011;7090;49.436;8.490;2023-06-24T08:56:40;7.90;;;7.60;;
14030;SDS011;7090;49.436;8.490;2023-06-24T08:59:06;8.75;;;8.32;;
14030;SDS011;7090;49.436;8.490;2023-06-24T09:01:33;7.70;;;7.40;;
14030;SDS011;7090;49.436;8.490;2023-06-24T09:03:59;9.10;;;8.55;;
14030;SDS011;7090;49.436;8.490;2023-06-24T09:06:25;8.95;;;8.40;;
14030;SDS011;7090;49.436;8.490;2023-06-24T09:08:54;8.45;;;8.05;;
14030;SDS011;7090;49.436;8.490;2023-06-24T09:11:26;8.93;;;8.43;;
14030;SDS011;7090;49.436;8.490;2023-06-24T09:13:56;7.75;;;7.45;;
14030;SDS011;7090;49.436;8.490;2023-06-24T09:16:23;8.02;;;7.72;;
14030;SDS011;7090;49.436;8.490;2023-06-24T09:18:49;8.10;;;7.70;;
14030;SDS011;7090;49.436;8.490;2023-06-24T09:21:22;9.18;;;8.57;;
14030;SDS011;7090;49.436;8.490;2023-06-24T09:23:52;8.85;;;8.32;;
14030;SDS011;7090;49.436;8.490;2023-06-24T09:26:19;8.85;;;8.35;;
14030;SDS011;7090;49.436;8.490;2023-06-24T09:28:48;8.35;;;7.95;;
14030;SDS011;7090;49.436;8.490;2023-06-24T09:31:16;8.48;;;8.02;;
14030;SDS011;7090;49.436;8.490;2023-06-24T09:33:42;8.10;;;7.70;;
14030;SDS011;7090;49.436;8.490;2023-06-24T09:36:12;10.48;;;9.77;;
14030;SDS011;7090;49.436;8.490;2023-06-24T09:38:40;8.57;;;8.05;;
14030;SDS011;7090;49.436;8.490;2023-06-24T09:41:07;9.75;;;9.05;;
14030;SDS011;7090;49.436;8.490;2023-06-24T09:43:34;8.50;;;8.10;;
14030;SDS011;7090;49.436;8.490;2023-06-24T09:46:04;8.25;;;7.85;;
14030;SDS011;7090;49.436;8.490;2023-06-24T09:48:31;8.40;;;8.00;;
14030;SDS011;7090;49.436;8.490;2023-06-24T09:50:59;8.43;;;8.02;;
14030;SDS011;7090;49.436;8.490;2023-06-24T09:53:33;8.70;;;8.30;;
14030;SDS011;7090;49.436;8.490;2023-06-24T09:56:00;8.40;;;8.00;;
14030;SDS011;7090;49.436;8.490;2023-06-24T09:58:31;7.97;;;7.68;;
14030;SDS011;7090;49.436;8.490;2023-06-24T10:01:03;8.25;;;7.75;;
14030;SDS011;7090;49.436;8.490;2023-06-24T10:03:31;8.55;;;8.05;;
14030;SDS011;7090;49.436;8.490;2023-06-24T10:06:00;8.52;;;8.13;;
14030;SDS011;7090;49.436;8.490;2023-06-24T10:08:27;8.45;;;8.05;;
14030;SDS011;7090;49.436;8.490;2023-06-24T10:10:55;8.68;;;8.10;;
14030;SDS011;7090;49.436;8.490;2023-06-24T10:13:21;9.15;;;8.60;;
14030;SDS011;7090;49.436;8.490;2023-06-24T10:15:47;8.68;;;8.18;;
14030;SDS011;7090;49.436;8.490;2023-06-24T10:21:09;8.35;;;7.95;;
14030;SDS011;7090;49.436;8.490;2023-06-24T10:23:39;8.23;;;7.93;;
14030;SDS011;7090;49.436;8.490;2023-06-24T10:26:10;8.60;;;8.20;;
14030;SDS011;7090;49.436;8.490;2023-06-24T10:37:04;8.18;;;7.65;;
14030;SDS011;7090;49.436;8.490;2023-06-24T10:47:42;9.30;;;8.68;;
14030;SDS011;7090;49.436;8.490;2023-06-24T10:50:13;10.73;;;9.88;;
14030;SDS011;7090;49.436;8.490;2023-06-24T10:52:43;8.70;;;8.30;;
14030;SDS011;7090;49.436;8.490;2023-06-24T10:55:12;9.80;;;9.25;;
14030;SDS011;7090;49.436;8.490;2023-06-24T10:57:39;10.32;;;9.82;;
14030;SDS011;7090;49.436;8.490;2023-06-24T11:00:06;9.13;;;8.73;;
14030;SDS011;7090;49.436;8.490;2023-06-24T11:02:32;9.50;;;9.00;;
14030;SDS011;7090;49.436;8.490;2023-06-24T11:04:58;8.65;;;8.15;;
14030;SDS011;7090;49.436;8.490;2023-06-24T11:07:29;9.10;;;8.60;;
14030;SDS011;7090;49.436;8.490;2023-06-24T11:10:06;8.90;;;8.40;;
14030;SDS011;7090;49.436;8.490;2023-06-24T11:12:36;8.60;;;8.20;;
14030;SDS011;7090;49.436;8.490;2023-06-24T11:15:04;8.80;;;8.40;;
14030;SDS011;7090;49.436;8.490;2023-06-24T11:17:31;8.80;;;8.40;;
14030;SDS011;7090;49.436;8.490;2023-06-24T11:19:58;8.60;;;8.20;;
14030;SDS011;7090;49.436;8.490;2023-06-24T11:22:24;8.40;;;8.00;;
14030;SDS011;7090;49.436;8.490;2023-06-24T11:24:50;8.50;;;8.10;;
14030;SDS011;7090;49.436;8.490;2023-06-24T11:27:23;9.70;;;9.00;;
14030;SDS011;7090;49.436;8.490;2023-06-24T11:29:51;8.60;;;8.20;;
14030;SDS011;7090;49.436;8.490;2023-06-24T11:32:17;9.48;;;8.90;;
14030;SDS011;7090;49.436;8.490;2023-06-24T11:34:42;9.60;;;9.10;;
14030;SDS011;7090;49.436;8.490;2023-06-24T11:37:08;8.60;;;8.20;;
14030;SDS011;7090;49.436;8.490;2023-06-24T11:39:38;9.70;;;9.10;;
14030;SDS011;7090;49.436;8.490;2023-06-24T11:42:05;9.18;;;8.77;;
14030;SDS011;7090;49.436;8.490;2023-06-24T11:44:35;8.20;;;7.82;;
14030;SDS011;7090;49.436;8.490;2023-06-24T11:47:06;8.32;;;7.93;;
14030;SDS011;7090;49.436;8.490;2023-06-24T11:49:47;8.60;;;8.20;;
14030;SDS011;7090;49.436;8.490;2023-06-24T11:52:17;9.05;;;8.55;;
14030;SDS011;7090;49.436;8.490;2023-06-24T11:54:43;8.40;;;8.10;;
14030;SDS011;7090;49.436;8.490;2023-06-24T11:57:09;8.60;;;8.20;;
14030;SDS011;7090;49.436;8.490;2023-06-24T11:59:34;8.27;;;7.97;;
14030;SDS011;7090;49.436;8.490;2023-06-24T12:02:00;8.32;;;7.93;;
14030;SDS011;7090;49.436;8.490;2023-06-24T12:04:31;8.38;;;7.97;;
14030;SDS011;7090;49.436;8.490;2023-06-24T12:06:58;8.35;;;8.05;;
14030;SDS011;7090;49.436;8.490;2023-06-24T12:09:25;9.00;;;8.60;;
14030;SDS011;7090;49.436;8.490;2023-06-24T12:11:52;8.90;;;8.50;;
14030;SDS011;7090;49.436;8.490;2023-06-24T12:14:17;9.20;;;8.65;;
14030;SDS011;7090;49.436;8.490;2023-06-24T12:16:43;9.75;;;9.25;;
14030;SDS011;7090;49.436;8.490;2023-06-24T12:19:09;9.43;;;8.93;;
14030;SDS011;7090;49.436;8.490;2023-06-24T12:21:36;9.05;;;8.65;;
14030;SDS011;7090;49.436;8.490;2023-06-24T12:24:03;10.55;;;9.95;;
14030;SDS011;7090;49.436;8.490;2023-06-24T12:26:29;9.32;;;8.85;;
14030;SDS011;7090;49.436;8.490;2023-06-24T12:28:54;10.05;;;9.45;;
14030;SDS011;7090;49.436;8.490;2023-06-24T12:31:24;8.93;;;8.52;;
14030;SDS011;7090;49.436;8.490;2023-06-24T12:33:50;9.57;;;9.07;;
14030;SDS011;7090;49.436;8.490;2023-06-24T12:36:17;10.10;;;9.40;;
14030;SDS011;7090;49.436;8.490;2023-06-24T12:38:43;8.30;;;7.90;;
14030;SDS011;7090;49.436;8.490;2023-06-24T12:41:09;8.75;;;8.35;;
14030;SDS011;7090;49.436;8.490;2023-06-24T12:43:34;9.02;;;8.63;;
14030;SDS011;7090;49.436;8.490;2023-06-24T12:46:00;8.48;;;8.07;;
14030;SDS011;7090;49.436;8.490;2023-06-24T12:48:25;8.45;;;8.05;;
14030;SDS011;7090;49.436;8.490;2023-06-24T12:50:51;8.38;;;7.97;;
14030;SDS011;7090;49.436;8.490;2023-06-24T12:53:18;9.07;;;8.60;;
14030;SDS011;7090;49.436;8.490;2023-06-24T12:55:45;8.05;;;7.72;;
14030;SDS011;7090;49.436;8.490;2023-06-24T12:58:10;8.77;;;8.38;;
14030;SDS011;7090;49.436;8.490;2023-06-24T13:00:37;9.73;;;9.15;;
14030;SDS011;7090;49.436;8.490;2023-06-24T13:03:03;10.05;;;9.45;;
14030;SDS011;7090;49.436;8.490;2023-06-24T13:05:29;9.57;;;9.07;;
14030;SDS011;7090;49.436;8.490;2023-06-24T13:07:55;10.15;;;9.55;;
14030;SDS011;7090;49.436;8.490;2023-06-24T13:10:20;8.82;;;8.43;;
14030;SDS011;7090;49.436;8.490;2023-06-24T13:12:46;8.57;;;8.18;;
14030;SDS011;7090;49.436;8.490;2023-06-24T13:15:13;8.98;;;8.57;;
14030;SDS011;7090;49.436;8.490;2023-06-24T13:17:39;8.10;;;7.80;;
14030;SDS011;7090;49.436;8.490;2023-06-24T13:20:05;8.75;;;8.35;;
14030;SDS011;7090;49.436;8.490;2023-06-24T13:22:31;8.85;;;8.35;;
14030;SDS011;7090;49.436;8.490;2023-06-24T13:24:57;9.02;;;8.63;;
14030;SDS011;7090;49.436;8.490;2023-06-24T13:27:22;9.00;;;8.60;;
14030;SDS011;7090;49.436;8.490;2023-06-24T13:29:48;8.43;;;8.10;;
14030;SDS011;7090;49.436;8.490;2023-06-24T13:32:14;8.50;;;8.10;;
14030;SDS011;7090;49.436;8.490;2023-06-24T13:34:39;8.70;;;8.30;;
14030;SDS011;7090;49.436;8.490;2023-06-24T13:37:05;8.70;;;8.30;;
14030;SDS011;7090;49.436;8.490;2023-06-24T13:39:31;8.98;;;8.57;;
14030;SDS011;7090;49.436;8.490;2023-06-24T13:41:57;7.68;;;7.38;;
14030;SDS011;7090;49.436;8.490;2023-06-24T13:44:23;9.52;;;9.02;;
14030;SDS011;7090;49.436;8.490;2023-06-24T13:46:48;8.60;;;8.20;;
14030;SDS011;7090;49.436;8.490;2023-06-24T13:49:18;10.07;;;9.52;;
14030;SDS011;7090;49.436;8.490;2023-06-24T13:51:44;9.30;;;8.90;;
14030;SDS011;7090;49.436;8.490;2023-06-24T13:54:10;9.10;;;8.70;;
14030;SDS011;7090;49.436;8.490;2023-06-24T13:56:35;9.18;;;8.77;;
14030;SDS011;7090;49.436;8.490;2023-06-24T13:59:01;9.05;;;8.65;;
14030;SDS011;7090;49.436;8.490;2023-06-24T14:01:27;9.13;;;8.73;;
14030;SDS011;7090;49.436;8.490;2023-06-24T14:03:54;10.20;;;9.50;;
14030;SDS011;7090;49.436;8.490;2023-06-24T14:06:20;9.20;;;8.80;;
14030;SDS011;7090;49.436;8.490;2023-06-24T14:08:47;8.57;;;8.18;;
14030;SDS011;7090;49.436;8.490;2023-06-24T14:11:13;9.93;;;9.23;;
14030;SDS011;7090;49.436;8.490;2023-06-24T14:13:39;8.55;;;8.15;;
14030;SDS011;7090;49.436;8.490;2023-06-24T14:16:05;8.38;;;7.97;;
14030;SDS011;7090;49.436;8.490;2023-06-24T14:18:31;9.60;;;9.10;;
14030;SDS011;7090;49.436;8.490;2023-06-24T14:20:57;9.63;;;9.13;;
14030;SDS011;7090;49.436;8.490;2023-06-24T14:23:23;9.77;;;9.18;;
14030;SDS011;7090;49.436;8.490;2023-06-24T14:25:50;8.85;;;8.45;;
14030;SDS011;7090;49.436;8.490;2023-06-24T14:28:17;8.77;;;8.38;;
14030;SDS011;7090;49.436;8.490;2023-06-24T14:30:42;8.60;;;8.20;;
14030;SDS011;7090;49.436;8.490;2023-06-24T14:33:08;8.05;;;7.75;;
14030;SDS011;7090;49.436;8.490;2023-06-24T14:35:34;8.57;;;8.18;;
14030;SDS011;7090;49.436;8.490;2023-06-24T14:38:00;8.82;;;8.43;;
14030;SDS011;7090;49.436;8.490;2023-06-24T14:40:26;9.30;;;8.80;;
14030;SDS011;7090;49.436;8.490;2023-06-24T14:42:51;10.27;;;9.75;;
14030;SDS011;7090;49.436;8.490;2023-06-24T14:45:17;11.48;;;10.77;;
14030;SDS011;7090;49.436;8.490;2023-06-24T14:47:42;8.40;;;8.00;;
14030;SDS011;7090;49.436;8.490;2023-06-24T14:50:09;9.40;;;8.90;;
14030;SDS011;7090;49.436;8.490;2023-06-24T14:52:35;8.07;;;7.78;;
14030;SDS011;7090;49.436;8.490;2023-06-24T14:55:00;8.27;;;7.97;;
14030;SDS011;7090;49.436;8.490;2023-06-24T14:57:26;9.60;;;9.10;;
14030;SDS011;7090;49.436;8.490;2023-06-24T14:59:52;8.80;;;8.40;;
14030;SDS011;7090;49.436;8.490;2023-06-24T15:02:17;9.68;;;9.18;;
14030;SDS011;7090;49.436;8.490;2023-06-24T15:04:43;8.82;;;8.43;;
14030;SDS011;7090;49.436;8.490;2023-06-24T15:07:08;8.95;;;8.55;;
14030;SDS011;7090;49.436;8.490;2023-06-24T15:09:34;10.20;;;9.70;;
14030;SDS011;7090;49.436;8.490;2023-06-24T15:12:00;9.20;;;8.70;;
14030;SDS011;7090;49.436;8.490;2023-06-24T15:14:26;11.25;;;10.55;;
14030;SDS011;7090;49.436;8.490;2023-06-24T15:16:52;9.70;;;9.20;;
14030;SDS011;7090;49.436;8.490;2023-06-24T15:19:19;9.27;;;8.77;;
14030;SDS011;7090;49.436;8.490;2023-06-24T15:21:44;8.55;;;8.25;;
14030;SDS011;7090;49.436;8.490;2023-06-24T15:24:10;8.98;;;8.57;;
14030;SDS011;7090;49.436;8.490;2023-06-24T15:26:35;8.38;;;8.07;;
14030;SDS011;7090;49.436;8.490;2023-06-24T15:29:01;9.00;;;8.60;;